sensor_id;sensor_type;location;lat;lon;timestamp;pressure;altitude;pressure_sealevel;temperature;humidity
8320;BME280;4197;42.130;24.746;2022-08-14T00:02:23;98752.06;;;22.02;79.64
8320;BME280;4197;42.130;24.746;2022-08-14T00:04:53;98749.50;;;22.08;79.34
8320;BME280;4197;42.130;24.746;2022-08-14T00:07:22;98754.66;;;22.18;78.65
8320;BME280;4197;42.130;24.746;2022-08-14T00:09:52;98745.25;;;22.29;77.88
8320;BME280;4197;42.130;24.746;2022-08-14T00:12:44;98745.81;;;22.23;78.25
8320;BME280;4197;42.130;24.746;2022-08-14T00:15:24;98732.44;;;22.22;78.35
8320;BME280;4197;42.130;24.746;2022-08-14T00:18:04;98739.38;;;22.26;78.28
8320;BME280;4197;42.130;24.746;2022-08-14T00:20:35;98735.09;;;22.25;78.15
8320;BME280;4197;42.130;24.746;2022-08-14T00:23:11;98739.75;;;22.16;78.58
8320;BME280;4197;42.130;24.746;2022-08-14T00:25:45;98739.56;;;22.10;78.99
8320;BME280;4197;42.130;24.746;2022-08-14T00:28:25;98733.97;;;22.01;79.04
8320;BME280;4197;42.130;24.746;2022-08-14T00:31:00;98732.31;;;22.03;79.26
8320;BME280;4197;42.130;24.746;2022-08-14T00:33:30;98736.59;;;22.04;79.00
8320;BME280;4197;42.130;24.746;2022-08-14T00:36:19;98731.59;;;22.12;78.50
8320;BME280;4197;42.130;24.746;2022-08-14T00:39:11;98721.88;;;22.08;78.91
8320;BME280;4197;42.130;24.746;2022-08-14T00:41:40;98721.44;;;22.09;78.59
8320;BME280;4197;42.130;24.746;2022-08-14T00:44:08;98735.88;;;22.13;78.34
8320;BME280;4197;42.130;24.746;2022-08-14T00:46:37;98727.22;;;22.02;79.10
8320;BME280;4197;42.130;24.746;2022-08-14T00:49:06;98718.38;;;22.07;78.78
8320;BME280;4197;42.130;24.746;2022-08-14T00:51:40;98723.22;;;22.03;79.00
8320;BME280;4197;42.130;24.746;2022-08-14T00:54:12;98715.84;;;22.00;79.19
8320;BME280;4197;42.130;24.746;2022-08-14T00:56:49;98714.47;;;21.95;79.65
8320;BME280;4197;42.130;24.746;2022-08-14T00:59:22;98719.19;;;21.95;79.69
8320;BME280;4197;42.130;24.746;2022-08-14T01:01:51;98720.53;;;21.90;80.04
8320;BME280;4197;42.130;24.746;2022-08-14T01:04:22;98712.91;;;21.94;79.68
8320;BME280;4197;42.130;24.746;2022-08-14T01:07:10;98713.28;;;21.83;80.21
8320;BME280;4197;42.130;24.746;2022-08-14T01:09:48;98716.88;;;21.93;79.92
8320;BME280;4197;42.130;24.746;2022-08-14T01:12:18;98713.09;;;22.00;79.62
8320;BME280;4197;42.130;24.746;2022-08-14T01:14:56;98710.91;;;21.95;79.85
8320;BME280;4197;42.130;24.746;2022-08-14T01:17:26;98708.53;;;21.84;80.42
8320;BME280;4197;42.130;24.746;2022-08-14T01:20:18;98703.13;;;21.80;80.28
8320;BME280;4197;42.130;24.746;2022-08-14T01:23:09;98708.66;;;21.80;80.01
8320;BME280;4197;42.130;24.746;2022-08-14T01:25:46;98696.84;;;21.80;80.11
8320;BME280;4197;42.130;24.746;2022-08-14T01:28:18;98705.59;;;21.78;80.22
8320;BME280;4197;42.130;24.746;2022-08-14T01:31:08;98705.41;;;21.73;80.35
8320;BME280;4197;42.130;24.746;2022-08-14T01:33:41;98708.78;;;21.77;80.27
8320;BME280;4197;42.130;24.746;2022-08-14T01:36:30;98708.25;;;21.69;80.81
8320;BME280;4197;42.130;24.746;2022-08-14T01:39:07;98704.72;;;21.69;80.37
8320;BME280;4197;42.130;24.746;2022-08-14T01:41:40;98705.13;;;21.80;80.43
8320;BME280;4197;42.130;24.746;2022-08-14T01:44:12;98706.91;;;21.74;79.91
8320;BME280;4197;42.130;24.746;2022-08-14T01:47:01;98707.06;;;21.70;80.22
8320;BME280;4197;42.130;24.746;2022-08-14T01:49:37;98712.47;;;21.61;80.98
8320;BME280;4197;42.130;24.746;2022-08-14T01:52:24;98716.59;;;21.56;81.28
8320;BME280;4197;42.130;24.746;2022-08-14T01:55:15;98711.19;;;21.53;81.68
8320;BME280;4197;42.130;24.746;2022-08-14T01:57:44;98708.75;;;21.55;81.64
8320;BME280;4197;42.130;24.746;2022-08-14T02:00:28;98715.72;;;21.47;82.09
8320;BME280;4197;42.130;24.746;2022-08-14T02:03:02;98708.22;;;21.47;82.22
8320;BME280;4197;42.130;24.746;2022-08-14T02:05:32;98714.53;;;21.48;82.43
8320;BME280;4197;42.130;24.746;2022-08-14T02:08:04;98703.16;;;21.46;82.61
8320;BME280;4197;42.130;24.746;2022-08-14T02:10:37;98694.53;;;21.56;82.46
8320;BME280;4197;42.130;24.746;2022-08-14T02:13:15;98699.50;;;21.49;82.72
8320;BME280;4197;42.130;24.746;2022-08-14T02:15:45;98695.22;;;21.48;83.01
8320;BME280;4197;42.130;24.746;2022-08-14T02:18:15;98696.75;;;21.49;83.35
8320;BME280;4197;42.130;24.746;2022-08-14T02:20:44;98688.88;;;21.60;82.52
8320;BME280;4197;42.130;24.746;2022-08-14T02:23:17;98691.22;;;21.49;82.77
8320;BME280;4197;42.130;24.746;2022-08-14T02:26:00;98694.00;;;21.49;82.59
8320;BME280;4197;42.130;24.746;2022-08-14T02:28:54;98702.69;;;21.47;82.39
8320;BME280;4197;42.130;24.746;2022-08-14T02:31:27;98698.19;;;21.41;83.29
8320;BME280;4197;42.130;24.746;2022-08-14T02:34:12;98691.16;;;21.40;83.42
8320;BME280;4197;42.130;24.746;2022-08-14T02:36:52;98688.13;;;21.47;82.58
8320;BME280;4197;42.130;24.746;2022-08-14T02:39:32;98685.91;;;21.54;81.37
8320;BME280;4197;42.130;24.746;2022-08-14T02:42:04;98682.13;;;21.61;80.85
8320;BME280;4197;42.130;24.746;2022-08-14T02:44:40;98686.28;;;21.78;79.65
8320;BME280;4197;42.130;24.746;2022-08-14T02:47:16;98684.78;;;21.65;80.53
8320;BME280;4197;42.130;24.746;2022-08-14T02:49:47;98681.03;;;21.58;81.28
8320;BME280;4197;42.130;24.746;2022-08-14T02:52:21;98689.56;;;21.51;81.70
8320;BME280;4197;42.130;24.746;2022-08-14T02:55:09;98680.53;;;21.51;82.21
8320;BME280;4197;42.130;24.746;2022-08-14T02:57:48;98670.59;;;21.53;81.85
8320;BME280;4197;42.130;24.746;2022-08-14T03:00:31;98672.69;;;21.49;81.60
8320;BME280;4197;42.130;24.746;2022-08-14T03:03:05;98670.38;;;21.48;81.87
8320;BME280;4197;42.130;24.746;2022-08-14T03:05:34;98668.47;;;21.57;81.45
8320;BME280;4197;42.130;24.746;2022-08-14T03:08:09;98670.69;;;21.50;81.68
8320;BME280;4197;42.130;24.746;2022-08-14T03:10:44;98667.16;;;21.49;81.88
8320;BME280;4197;42.130;24.746;2022-08-14T03:13:18;98668.97;;;21.43;82.73
8320;BME280;4197;42.130;24.746;2022-08-14T03:15:48;98670.59;;;21.53;82.68
8320;BME280;4197;42.130;24.746;2022-08-14T03:18:25;98674.69;;;21.36;83.65
8320;BME280;4197;42.130;24.746;2022-08-14T03:21:02;98661.66;;;21.36;84.52
8320;BME280;4197;42.130;24.746;2022-08-14T03:23:31;98666.00;;;21.37;85.10
8320;BME280;4197;42.130;24.746;2022-08-14T03:26:05;98658.91;;;21.36;85.42
8320;BME280;4197;42.130;24.746;2022-08-14T03:28:35;98664.88;;;21.35;85.85
8320;BME280;4197;42.130;24.746;2022-08-14T03:31:05;98657.25;;;21.39;86.01
8320;BME280;4197;42.130;24.746;2022-08-14T03:33:39;98662.34;;;21.28;86.51
8320;BME280;4197;42.130;24.746;2022-08-14T03:36:11;98664.38;;;21.14;87.06
8320;BME280;4197;42.130;24.746;2022-08-14T03:39:02;98656.13;;;21.14;87.70
8320;BME280;4197;42.130;24.746;2022-08-14T03:41:47;98667.44;;;21.16;87.66
8320;BME280;4197;42.130;24.746;2022-08-14T03:44:17;98678.28;;;21.11;88.14
8320;BME280;4197;42.130;24.746;2022-08-14T03:47:06;98667.72;;;20.97;88.73
8320;BME280;4197;42.130;24.746;2022-08-14T03:49:37;98673.00;;;20.91;89.28
8320;BME280;4197;42.130;24.746;2022-08-14T03:52:07;98670.81;;;20.86;89.68
8320;BME280;4197;42.130;24.746;2022-08-14T03:54:56;98684.25;;;20.84;89.96
8320;BME280;4197;42.130;24.746;2022-08-14T03:57:26;98683.81;;;20.85;90.40
8320;BME280;4197;42.130;24.746;2022-08-14T04:00:07;98682.72;;;20.96;90.13
8320;BME280;4197;42.130;24.746;2022-08-14T04:02:57;98684.03;;;20.91;90.43
8320;BME280;4197;42.130;24.746;2022-08-14T04:05:25;98690.44;;;20.88;91.01
8320;BME280;4197;42.130;24.746;2022-08-14T04:07:53;98695.72;;;20.95;90.94
8320;BME280;4197;42.130;24.746;2022-08-14T04:10:41;98695.47;;;21.02;90.87
8320;BME280;4197;42.130;24.746;2022-08-14T04:13:13;98700.44;;;21.20;90.18
8320;BME280;4197;42.130;24.746;2022-08-14T04:15:45;98700.44;;;21.20;90.54
8320;BME280;4197;42.130;24.746;2022-08-14T04:18:26;98705.50;;;21.22;91.18
8320;BME280;4197;42.130;24.746;2022-08-14T04:20:55;98701.06;;;21.24;91.76
8320;BME280;4197;42.130;24.746;2022-08-14T04:23:24;98706.94;;;21.26;91.79
8320;BME280;4197;42.130;24.746;2022-08-14T04:25:59;98706.16;;;21.26;92.06
8320;BME280;4197;42.130;24.746;2022-08-14T04:28:28;98711.56;;;21.29;92.31
8320;BME280;4197;42.130;24.746;2022-08-14T04:31:19;98711.44;;;21.33;92.39
8320;BME280;4197;42.130;24.746;2022-08-14T04:34:08;98710.53;;;21.36;92.42
8320;BME280;4197;42.130;24.746;2022-08-14T04:36:49;98712.41;;;21.39;92.67
8320;BME280;4197;42.130;24.746;2022-08-14T04:39:36;98705.25;;;21.42;92.36
8320;BME280;4197;42.130;24.746;2022-08-14T04:42:24;98709.97;;;21.54;91.71
8320;BME280;4197;42.130;24.746;2022-08-14T04:45:18;98708.63;;;21.58;91.50
8320;BME280;4197;42.130;24.746;2022-08-14T04:47:48;98709.50;;;21.55;91.92
8320;BME280;4197;42.130;24.746;2022-08-14T04:50:37;98714.66;;;21.66;91.61
8320;BME280;4197;42.130;24.746;2022-08-14T04:53:12;98713.41;;;21.80;90.74
8320;BME280;4197;42.130;24.746;2022-08-14T04:55:41;98699.56;;;21.93;89.53
8320;BME280;4197;42.130;24.746;2022-08-14T04:58:16;98703.53;;;21.92;89.49
8320;BME280;4197;42.130;24.746;2022-08-14T05:00:58;98696.41;;;22.03;88.98
8320;BME280;4197;42.130;24.746;2022-08-14T05:03:31;98704.31;;;22.14;87.45
8320;BME280;4197;42.130;24.746;2022-08-14T05:06:06;98708.84;;;22.08;87.28
8320;BME280;4197;42.130;24.746;2022-08-14T05:08:55;98708.88;;;22.61;83.15
8320;BME280;4197;42.130;24.746;2022-08-14T05:11:26;98698.13;;;22.63;84.03
8320;BME280;4197;42.130;24.746;2022-08-14T05:14:02;98692.84;;;22.78;82.99
8320;BME280;4197;42.130;24.746;2022-08-14T05:16:52;98692.78;;;23.00;81.17
8320;BME280;4197;42.130;24.746;2022-08-14T05:19:29;98690.59;;;22.95;82.41
8320;BME280;4197;42.130;24.746;2022-08-14T05:21:58;98686.56;;;23.36;80.20
8320;BME280;4197;42.130;24.746;2022-08-14T05:24:46;98691.81;;;23.80;76.96
8320;BME280;4197;42.130;24.746;2022-08-14T05:27:17;98692.53;;;24.18;74.50
8320;BME280;4197;42.130;24.746;2022-08-14T05:29:51;98687.59;;;24.22;73.65
8320;BME280;4197;42.130;24.746;2022-08-14T05:32:23;98687.00;;;24.18;73.67
8320;BME280;4197;42.130;24.746;2022-08-14T05:34:55;98683.41;;;24.36;71.96
8320;BME280;4197;42.130;24.746;2022-08-14T05:37:25;98685.44;;;24.44;70.28
8320;BME280;4197;42.130;24.746;2022-08-14T05:39:57;98689.00;;;24.08;73.08
8320;BME280;4197;42.130;24.746;2022-08-14T05:42:27;98691.16;;;24.22;72.73
8320;BME280;4197;42.130;24.746;2022-08-14T05:45:01;98690.38;;;24.22;72.01
8320;BME280;4197;42.130;24.746;2022-08-14T05:47:30;98700.88;;;24.09;72.78
8320;BME280;4197;42.130;24.746;2022-08-14T05:50:09;98697.81;;;24.07;74.00
8320;BME280;4197;42.130;24.746;2022-08-14T05:52:49;98696.69;;;24.22;73.31
8320;BME280;4197;42.130;24.746;2022-08-14T05:55:19;98694.81;;;24.38;73.32
8320;BME280;4197;42.130;24.746;2022-08-14T05:57:50;98691.41;;;24.43;73.34
8320;BME280;4197;42.130;24.746;2022-08-14T06:00:22;98697.13;;;24.30;74.69
8320;BME280;4197;42.130;24.746;2022-08-14T06:02:59;98696.41;;;24.20;74.91
8320;BME280;4197;42.130;24.746;2022-08-14T06:05:31;98702.97;;;24.32;74.17
8320;BME280;4197;42.130;24.746;2022-08-14T06:08:01;98705.78;;;24.23;74.84
8320;BME280;4197;42.130;24.746;2022-08-14T06:10:34;98697.16;;;24.21;74.71
8320;BME280;4197;42.130;24.746;2022-08-14T06:13:02;98703.50;;;23.94;76.29
8320;BME280;4197;42.130;24.746;2022-08-14T06:15:30;98703.81;;;23.87;76.17
8320;BME280;4197;42.130;24.746;2022-08-14T06:17:59;98709.38;;;23.87;76.62
8320;BME280;4197;42.130;24.746;2022-08-14T06:20:28;98707.81;;;23.86;77.10
8320;BME280;4197;42.130;24.746;2022-08-14T06:23:01;98698.75;;;23.76;77.89
8320;BME280;4197;42.130;24.746;2022-08-14T06:25:30;98702.13;;;23.71;77.92
8320;BME280;4197;42.130;24.746;2022-08-14T06:27:59;98705.81;;;23.77;77.34
8320;BME280;4197;42.130;24.746;2022-08-14T06:30:32;98700.25;;;23.68;77.67
8320;BME280;4197;42.130;24.746;2022-08-14T06:33:15;98708.69;;;23.55;78.34
8320;BME280;4197;42.130;24.746;2022-08-14T06:35:44;98712.53;;;23.48;78.22
8320;BME280;4197;42.130;24.746;2022-08-14T06:38:15;98713.09;;;23.25;80.08
8320;BME280;4197;42.130;24.746;2022-08-14T06:40:45;98710.34;;;23.25;80.11
8320;BME280;4197;42.130;24.746;2022-08-14T06:43:15;98718.81;;;23.30;79.57
8320;BME280;4197;42.130;24.746;2022-08-14T06:45:46;98715.16;;;23.33;78.81
8320;BME280;4197;42.130;24.746;2022-08-14T06:48:21;98711.59;;;23.33;77.96
8320;BME280;4197;42.130;24.746;2022-08-14T06:50:50;98713.91;;;23.25;78.87
8320;BME280;4197;42.130;24.746;2022-08-14T06:53:21;98709.78;;;23.57;77.66
8320;BME280;4197;42.130;24.746;2022-08-14T06:55:54;98708.91;;;23.79;76.29
8320;BME280;4197;42.130;24.746;2022-08-14T06:58:28;98711.19;;;23.99;74.72
8320;BME280;4197;42.130;24.746;2022-08-14T07:00:59;98708.13;;;24.06;73.88
8320;BME280;4197;42.130;24.746;2022-08-14T07:03:55;98701.66;;;24.09;72.57
8320;BME280;4197;42.130;24.746;2022-08-14T07:06:51;98707.31;;;24.15;72.14
8320;BME280;4197;42.130;24.746;2022-08-14T07:09:25;98713.59;;;24.24;71.72
8320;BME280;4197;42.130;24.746;2022-08-14T07:12:14;98715.75;;;24.39;71.39
8320;BME280;4197;42.130;24.746;2022-08-14T07:15:03;98715.44;;;24.46;70.79
8320;BME280;4197;42.130;24.746;2022-08-14T07:17:31;98716.50;;;24.48;70.46
8320;BME280;4197;42.130;24.746;2022-08-14T07:20:03;98720.50;;;24.38;70.98
8320;BME280;4197;42.130;24.746;2022-08-14T07:22:39;98723.59;;;24.40;71.02
8320;BME280;4197;42.130;24.746;2022-08-14T07:25:23;98726.06;;;24.47;69.91
8320;BME280;4197;42.130;24.746;2022-08-14T07:27:58;98718.97;;;24.37;69.13
8320;BME280;4197;42.130;24.746;2022-08-14T07:30:27;98734.38;;;24.29;69.90
8320;BME280;4197;42.130;24.746;2022-08-14T07:33:00;98727.81;;;23.99;69.24
8320;BME280;4197;42.130;24.746;2022-08-14T07:35:29;98722.72;;;23.70;69.85
8320;BME280;4197;42.130;24.746;2022-08-14T07:38:19;98724.81;;;23.38;71.73
8320;BME280;4197;42.130;24.746;2022-08-14T07:40:50;98728.78;;;23.28;73.03
8320;BME280;4197;42.130;24.746;2022-08-14T07:43:19;98737.81;;;23.10;75.47
8320;BME280;4197;42.130;24.746;2022-08-14T07:45:49;98738.50;;;22.92;76.95
8320;BME280;4197;42.130;24.746;2022-08-14T07:48:20;98735.34;;;22.71;78.34
8320;BME280;4197;42.130;24.746;2022-08-14T07:50:51;98735.63;;;22.64;79.38
8320;BME280;4197;42.130;24.746;2022-08-14T07:53:36;98731.03;;;22.39;85.32
8320;BME280;4197;42.130;24.746;2022-08-14T07:56:08;98730.63;;;21.84;93.00
8320;BME280;4197;42.130;24.746;2022-08-14T07:58:57;98725.56;;;21.22;100.00
8320;BME280;4197;42.130;24.746;2022-08-14T08:01:27;98729.56;;;20.83;100.00
8320;BME280;4197;42.130;24.746;2022-08-14T08:03:57;98728.25;;;20.62;100.00
8320;BME280;4197;42.130;24.746;2022-08-14T08:06:27;98729.06;;;20.46;100.00
8320;BME280;4197;42.130;24.746;2022-08-14T08:08:58;98729.25;;;20.39;100.00
8320;BME280;4197;42.130;24.746;2022-08-14T08:11:33;98725.72;;;20.38;100.00
8320;BME280;4197;42.130;24.746;2022-08-14T08:14:05;98726.72;;;20.44;100.00
8320;BME280;4197;42.130;24.746;2022-08-14T08:16:42;98734.50;;;20.62;100.00
8320;BME280;4197;42.130;24.746;2022-08-14T08:19:17;98741.34;;;20.70;100.00
8320;BME280;4197;42.130;24.746;2022-08-14T08:21:46;98732.41;;;20.66;100.00
8320;BME280;4197;42.130;24.746;2022-08-14T08:24:14;98740.91;;;20.72;100.00
8320;BME280;4197;42.130;24.746;2022-08-14T08:26:48;98738.81;;;20.63;100.00
8320;BME280;4197;42.130;24.746;2022-08-14T08:29:20;98732.94;;;20.61;100.00
8320;BME280;4197;42.130;24.746;2022-08-14T08:31:55;98734.59;;;20.59;100.00
8320;BME280;4197;42.130;24.746;2022-08-14T08:34:41;98730.88;;;20.65;100.00
8320;BME280;4197;42.130;24.746;2022-08-14T08:37:12;98733.50;;;20.69;100.00
8320;BME280;4197;42.130;24.746;2022-08-14T08:39:43;98729.75;;;20.76;100.00
8320;BME280;4197;42.130;24.746;2022-08-14T08:42:31;98733.31;;;20.76;100.00
8320;BME280;4197;42.130;24.746;2022-08-14T08:45:08;98734.84;;;20.77;100.00
8320;BME280;4197;42.130;24.746;2022-08-14T08:47:39;98737.41;;;20.84;100.00
8320;BME280;4197;42.130;24.746;2022-08-14T08:50:19;98734.94;;;20.86;100.00
8320;BME280;4197;42.130;24.746;2022-08-14T08:52:59;98742.03;;;20.87;100.00
8320;BME280;4197;42.130;24.746;2022-08-14T08:55:30;98745.97;;;20.86;100.00
8320;BME280;4197;42.130;24.746;2022-08-14T08:58:03;98746.44;;;20.85;100.00
8320;BME280;4197;42.130;24.746;2022-08-14T09:00:46;98739.03;;;20.82;100.00
8320;BME280;4197;42.130;24.746;2022-08-14T09:03:21;98738.59;;;20.83;100.00
8320;BME280;4197;42.130;24.746;2022-08-14T09:05:55;98740.91;;;20.85;100.00
8320;BME280;4197;42.130;24.746;2022-08-14T09:08:25;98728.03;;;20.82;100.00
8320;BME280;4197;42.130;24.746;2022-08-14T09:11:00;98737.06;;;20.82;100.00
8320;BME280;4197;42.130;24.746;2022-08-14T09:13:50;98737.38;;;20.97;100.00
8320;BME280;4197;42.130;24.746;2022-08-14T09:16:21;98730.84;;;21.16;100.00
8320;BME280;4197;42.130;24.746;2022-08-14T09:18:50;98733.47;;;21.33;100.00
8320;BME280;4197;42.130;24.746;2022-08-14T09:21:21;98731.47;;;21.59;100.00
8320;BME280;4197;42.130;24.746;2022-08-14T09:23:57;98734.38;;;21.77;100.00
8320;BME280;4197;42.130;24.746;2022-08-14T09:26:45;98733.06;;;22.04;100.00
8320;BME280;4197;42.130;24.746;2022-08-14T09:29:17;98725.13;;;22.06;100.00
8320;BME280;4197;42.130;24.746;2022-08-14T09:31:53;98729.22;;;22.01;100.00
8320;BME280;4197;42.130;24.746;2022-08-14T09:34:38;98723.50;;;21.96;100.00
8320;BME280;4197;42.130;24.746;2022-08-14T09:37:38;98716.22;;;21.89;100.00
8320;BME280;4197;42.130;24.746;2022-08-14T09:40:16;98723.69;;;21.79;100.00
8320;BME280;4197;42.130;24.746;2022-08-14T09:42:56;98724.25;;;21.74;100.00
8320;BME280;4197;42.130;24.746;2022-08-14T09:45:32;98713.13;;;21.65;100.00
8320;BME280;4197;42.130;24.746;2022-08-14T09:48:20;98707.78;;;21.49;100.00
8320;BME280;4197;42.130;24.746;2022-08-14T09:50:57;98706.94;;;21.26;100.00
8320;BME280;4197;42.130;24.746;2022-08-14T09:53:36;98703.75;;;21.02;100.00
8320;BME280;4197;42.130;24.746;2022-08-14T09:56:27;98712.59;;;20.84;100.00
8320;BME280;4197;42.130;24.746;2022-08-14T09:59:09;98724.03;;;20.70;100.00
8320;BME280;4197;42.130;24.746;2022-08-14T10:01:43;98729.97;;;20.56;100.00
8320;BME280;4197;42.130;24.746;2022-08-14T10:04:20;98726.19;;;20.49;100.00
8320;BME280;4197;42.130;24.746;2022-08-14T10:07:04;98733.13;;;20.41;100.00
8320;BME280;4197;42.130;24.746;2022-08-14T10:09:45;98712.31;;;20.40;100.00
8320;BME280;4197;42.130;24.746;2022-08-14T10:12:44;98705.94;;;20.43;100.00
8320;BME280;4197;42.130;24.746;2022-08-14T10:15:19;98704.06;;;20.40;100.00
8320;BME280;4197;42.130;24.746;2022-08-14T10:18:06;98698.00;;;20.45;100.00
8320;BME280;4197;42.130;24.746;2022-08-14T10:20:54;98686.88;;;20.49;100.00
8320;BME280;4197;42.130;24.746;2022-08-14T10:23:25;98678.16;;;20.50;100.00
8320;BME280;4197;42.130;24.746;2022-08-14T10:26:03;98685.22;;;20.52;100.00
8320;BME280;4197;42.130;24.746;2022-08-14T10:28:38;98689.00;;;20.58;100.00
8320;BME280;4197;42.130;24.746;2022-08-14T10:31:28;98667.53;;;20.65;100.00
8320;BME280;4197;42.130;24.746;2022-08-14T10:34:17;98667.94;;;20.64;100.00
8320;BME280;4197;42.130;24.746;2022-08-14T10:37:03;98668.28;;;20.66;100.00
8320;BME280;4197;42.130;24.746;2022-08-14T10:39:42;98668.06;;;20.73;100.00
8320;BME280;4197;42.130;24.746;2022-08-14T10:42:34;98671.03;;;20.91;100.00
8320;BME280;4197;42.130;24.746;2022-08-14T10:45:15;98669.66;;;21.09;100.00
8320;BME280;4197;42.130;24.746;2022-08-14T10:47:47;98671.38;;;21.41;100.00
8320;BME280;4197;42.130;24.746;2022-08-14T10:50:41;98662.69;;;21.43;100.00
8320;BME280;4197;42.130;24.746;2022-08-14T10:53:12;98665.31;;;21.46;100.00
8320;BME280;4197;42.130;24.746;2022-08-14T10:55:41;98658.25;;;21.45;100.00
8320;BME280;4197;42.130;24.746;2022-08-14T10:58:12;98645.16;;;21.58;100.00
8320;BME280;4197;42.130;24.746;2022-08-14T11:00:54;98655.31;;;21.61;100.00
8320;BME280;4197;42.130;24.746;2022-08-14T11:03:23;98659.44;;;21.57;100.00
8320;BME280;4197;42.130;24.746;2022-08-14T11:06:16;98650.19;;;21.51;100.00
8320;BME280;4197;42.130;24.746;2022-08-14T11:08:48;98648.00;;;21.33;100.00
8320;BME280;4197;42.130;24.746;2022-08-14T11:11:20;98646.34;;;21.48;100.00
8320;BME280;4197;42.130;24.746;2022-08-14T11:13:54;98645.25;;;21.46;100.00
8320;BME280;4197;42.130;24.746;2022-08-14T11:16:23;98647.09;;;21.49;100.00
8320;BME280;4197;42.130;24.746;2022-08-14T11:18:55;98654.84;;;21.41;100.00
8320;BME280;4197;42.130;24.746;2022-08-14T11:21:27;98668.00;;;21.24;100.00
8320;BME280;4197;42.130;24.746;2022-08-14T11:24:00;98673.06;;;21.38;100.00
8320;BME280;4197;42.130;24.746;2022-08-14T11:26:50;98668.41;;;21.48;100.00
8320;BME280;4197;42.130;24.746;2022-08-14T11:29:19;98672.88;;;21.55;100.00
8320;BME280;4197;42.130;24.746;2022-08-14T11:31:53;98677.72;;;21.64;100.00
8320;BME280;4197;42.130;24.746;2022-08-14T11:34:22;98678.88;;;21.75;100.00
8320;BME280;4197;42.130;24.746;2022-08-14T11:37:07;98671.94;;;21.71;100.00
8320;BME280;4197;42.130;24.746;2022-08-14T11:39:49;98674.00;;;21.79;100.00
8320;BME280;4197;42.130;24.746;2022-08-14T11:42:20;98663.91;;;21.86;100.00
8320;BME280;4197;42.130;24.746;2022-08-14T11:45:09;98665.47;;;21.87;100.00
8320;BME280;4197;42.130;24.746;2022-08-14T11:47:44;98670.66;;;21.85;100.00
8320;BME280;4197;42.130;24.746;2022-08-14T11:50:34;98671.09;;;21.83;100.00
8320;BME280;4197;42.130;24.746;2022-08-14T11:53:06;98670.72;;;21.72;100.00
8320;BME280;4197;42.130;24.746;2022-08-14T11:55:39;98669.56;;;21.60;100.00
8320;BME280;4197;42.130;24.746;2022-08-14T11:58:08;98676.59;;;21.61;100.00
8320;BME280;4197;42.130;24.746;2022-08-14T12:00:47;98671.03;;;21.52;100.00
8320;BME280;4197;42.130;24.746;2022-08-14T12:03:18;98678.13;;;21.40;100.00
8320;BME280;4197;42.130;24.746;2022-08-14T12:06:05;98684.44;;;21.15;100.00
8320;BME280;4197;42.130;24.746;2022-08-14T12:08:56;98677.50;;;20.98;100.00
8320;BME280;4197;42.130;24.746;2022-08-14T12:11:37;98674.66;;;20.88;100.00
8320;BME280;4197;42.130;24.746;2022-08-14T12:14:11;98675.75;;;20.78;100.00
8320;BME280;4197;42.130;24.746;2022-08-14T12:17:00;98685.69;;;20.63;100.00
8320;BME280;4197;42.130;24.746;2022-08-14T12:19:30;98691.41;;;20.56;100.00
8320;BME280;4197;42.130;24.746;2022-08-14T12:22:00;98686.53;;;20.47;100.00
8320;BME280;4197;42.130;24.746;2022-08-14T12:24:33;98688.06;;;20.35;100.00
8320;BME280;4197;42.130;24.746;2022-08-14T12:27:06;98682.88;;;20.24;100.00
8320;BME280;4197;42.130;24.746;2022-08-14T12:29:35;98679.22;;;20.15;100.00
8320;BME280;4197;42.130;24.746;2022-08-14T12:32:05;98677.09;;;20.06;100.00
8320;BME280;4197;42.130;24.746;2022-08-14T12:34:34;98677.22;;;20.02;100.00
8320;BME280;4197;42.130;24.746;2022-08-14T12:37:04;98682.81;;;19.99;100.00
8320;BME280;4197;42.130;24.746;2022-08-14T12:39:35;98683.94;;;20.01;100.00
8320;BME280;4197;42.130;24.746;2022-08-14T12:42:06;98698.88;;;20.00;100.00
8320;BME280;4197;42.130;24.746;2022-08-14T12:44:54;98708.22;;;19.90;100.00
8320;BME280;4197;42.130;24.746;2022-08-14T12:47:29;98720.16;;;19.83;100.00
8320;BME280;4197;42.130;24.746;2022-08-14T12:49:58;98715.13;;;19.82;100.00
8320;BME280;4197;42.130;24.746;2022-08-14T12:52:28;98716.06;;;19.75;100.00
8320;BME280;4197;42.130;24.746;2022-08-14T12:55:18;98706.19;;;19.78;100.00
8320;BME280;4197;42.130;24.746;2022-08-14T12:57:51;98703.94;;;19.73;100.00
8320;BME280;4197;42.130;24.746;2022-08-14T13:00:22;98685.25;;;19.68;100.00
8320;BME280;4197;42.130;24.746;2022-08-14T13:02:53;98662.81;;;19.53;100.00
8320;BME280;4197;42.130;24.746;2022-08-14T13:05:24;98644.94;;;19.45;100.00
8320;BME280;4197;42.130;24.746;2022-08-14T13:07:54;98645.69;;;19.32;100.00
8320;BME280;4197;42.130;24.746;2022-08-14T13:10:26;98644.97;;;19.28;100.00
8320;BME280;4197;42.130;24.746;2022-08-14T13:13:19;98648.88;;;19.14;100.00
8320;BME280;4197;42.130;24.746;2022-08-14T13:15:48;98653.84;;;19.03;100.00
8320;BME280;4197;42.130;24.746;2022-08-14T13:18:24;98677.47;;;19.17;100.00
8320;BME280;4197;42.130;24.746;2022-08-14T13:20:55;98701.34;;;19.20;100.00
8320;BME280;4197;42.130;24.746;2022-08-14T13:23:31;98693.88;;;19.21;100.00
8320;BME280;4197;42.130;24.746;2022-08-14T13:26:03;98692.56;;;19.25;100.00
8320;BME280;4197;42.130;24.746;2022-08-14T13:28:37;98694.97;;;19.39;100.00
8320;BME280;4197;42.130;24.746;2022-08-14T13:31:29;98696.59;;;19.37;100.00
8320;BME280;4197;42.130;24.746;2022-08-14T13:34:01;98688.91;;;19.32;100.00
8320;BME280;4197;42.130;24.746;2022-08-14T13:36:30;98680.03;;;19.24;100.00
8320;BME280;4197;42.130;24.746;2022-08-14T13:39:21;98685.34;;;19.31;100.00
8320;BME280;4197;42.130;24.746;2022-08-14T13:41:52;98679.78;;;19.35;100.00
8320;BME280;4197;42.130;24.746;2022-08-14T13:44:25;98664.66;;;19.43;100.00
8320;BME280;4197;42.130;24.746;2022-08-14T13:46:55;98660.94;;;19.50;100.00
8320;BME280;4197;42.130;24.746;2022-08-14T13:49:24;98656.38;;;19.59;100.00
8320;BME280;4197;42.130;24.746;2022-08-14T13:51:56;98658.06;;;19.53;100.00
8320;BME280;4197;42.130;24.746;2022-08-14T13:54:28;98659.13;;;19.59;100.00
8320;BME280;4197;42.130;24.746;2022-08-14T13:57:00;98655.16;;;19.60;100.00